S&P 500   3,346.70 (-0.79%)
DOW   29,032.74 (-0.64%)
QQQ   231.84 (-1.25%)
AAPL   316.77 (-1.10%)
FB   211.59 (-1.39%)
MSFT   180.24 (-2.27%)
GOOGL   1,501.98 (-0.99%)
NVDA   299.05 (-3.13%)
BABA   214.02 (-1.84%)
TSLA   899.04 (-0.04%)
AMD   55.35 (-3.35%)
F   7.94 (-1.12%)
BAC   34.39 (-1.35%)
DIS   139.45 (-0.66%)
S&P 500   3,346.70 (-0.79%)
DOW   29,032.74 (-0.64%)
QQQ   231.84 (-1.25%)
AAPL   316.77 (-1.10%)
FB   211.59 (-1.39%)
MSFT   180.24 (-2.27%)
GOOGL   1,501.98 (-0.99%)
NVDA   299.05 (-3.13%)
BABA   214.02 (-1.84%)
TSLA   899.04 (-0.04%)
AMD   55.35 (-3.35%)
F   7.94 (-1.12%)
BAC   34.39 (-1.35%)
DIS   139.45 (-0.66%)
S&P 500   3,346.70 (-0.79%)
DOW   29,032.74 (-0.64%)
QQQ   231.84 (-1.25%)
AAPL   316.77 (-1.10%)
FB   211.59 (-1.39%)
MSFT   180.24 (-2.27%)
GOOGL   1,501.98 (-0.99%)
NVDA   299.05 (-3.13%)
BABA   214.02 (-1.84%)
TSLA   899.04 (-0.04%)
AMD   55.35 (-3.35%)
F   7.94 (-1.12%)
BAC   34.39 (-1.35%)
DIS   139.45 (-0.66%)
S&P 500   3,346.70 (-0.79%)
DOW   29,032.74 (-0.64%)
QQQ   231.84 (-1.25%)
AAPL   316.77 (-1.10%)
FB   211.59 (-1.39%)
MSFT   180.24 (-2.27%)
GOOGL   1,501.98 (-0.99%)
NVDA   299.05 (-3.13%)
BABA   214.02 (-1.84%)
TSLA   899.04 (-0.04%)
AMD   55.35 (-3.35%)
F   7.94 (-1.12%)
BAC   34.39 (-1.35%)
DIS   139.45 (-0.66%)
Log in

Kontoor Brands Institutional Ownership (NYSE:KTB)

$39.34
+0.33 (+0.85 %)
(As of 02/21/2020 11:39 AM ET)
Today's Range
$38.57
Now: $39.34
$39.41
50-Day Range
$38.14
MA: $40.86
$42.79
52-Week Range
$25.78
Now: $39.34
$43.24
Volume3,768 shs
Average Volume585,743 shs
Market Capitalization$2.24 billion
P/E RatioN/A
Dividend Yield5.72%
BetaN/A

Institutional Ownership

Institutional Ownership Changes (13F Filings) for Kontoor Brands (NYSE:KTB)

Institutional Ownership Percentage: 96.79%

Institutional Buying and Selling by Quarter

Kontoor Brands (NYSE KTB) Institutional Buying and Selling

Reporting DateHedge FundShares HeldMarket Value% of PortfolioQuarterly Change in SharesOwnership in Company
2/20/2020Geode Capital Management LLC586,855$24.64M0.0%+3.7%1.031%
2/19/2020Mason Street Advisors LLC16,264$0.68M0.0%+2.7%0.029%
2/18/2020HM Payson & Co.2,262$95K0.0%-15.1%0.004%
2/18/2020Profund Advisors LLC4,823$0.20M0.0%N/A0.008%
2/18/2020Capital World Investors6,744,210$283.19M0.1%-3.0%11.844%
2/18/2020Alliancebernstein L.P.70,003$2.94M0.0%-76.5%0.123%
2/18/2020AXA148,653$6.24M0.0%+34.0%0.261%
2/18/2020Janus Henderson Group PLC877,876$36.86M0.0%+29.5%1.542%
2/17/2020Baird Financial Group Inc.84,580$3.55M0.0%+9.3%0.149%
2/17/2020Ladenburg Thalmann Financial Services Inc.7,504$0.31M0.0%+4.6%0.013%
2/14/2020Advisors Asset Management Inc.5,469$0.23M0.0%-24.0%0.010%
2/14/2020Cubist Systematic Strategies LLC30,632$1.29M0.0%+224.9%0.054%
2/14/2020Jane Street Group LLC17,621$0.74M0.0%+64.2%0.031%
2/14/2020CNH Partners LLC385,381$16.18M0.3%-14.0%0.677%
2/14/2020First Republic Investment Management Inc.8,253$0.35M0.0%-26.2%0.014%
2/14/2020Ancora Advisors LLC254,094$10.67M0.5%+5.2%0.446%
2/14/2020Bank of America Corp DE110,961$4.66M0.0%-30.9%0.195%
2/14/2020UBS Asset Management Americas Inc.53,914$2.26M0.0%-8.7%0.095%
2/14/2020Bank of New York Mellon Corp1,013,020$42.54M0.0%+2.7%1.779%
2/14/2020Goldman Sachs Group Inc.498,449$20.93M0.0%+51.6%0.875%
2/14/2020Guggenheim Capital LLC5,015$0.21M0.0%-34.7%0.009%
2/14/2020UBS Group AG287,723$12.08M0.0%+8.3%0.505%
2/14/2020Mitsubishi UFJ Trust & Banking Corp8,553$0.36M0.0%+47.9%0.015%
2/14/2020Keeley Teton Advisors LLC211,181$8.87M0.9%+13.9%0.371%
2/14/2020Public Sector Pension Investment Board104,610$4.39M0.0%-11.8%0.184%
2/13/2020Amalgamated Bank7,757$0.33M0.0%+7.5%0.014%
2/13/2020Pinebridge Investments L.P.22,010$0.92M0.0%-37.9%0.039%
2/13/2020Affinity Investment Advisors LLC13,368$0.56M0.2%N/A0.023%
2/13/2020Stifel Financial Corp156,065$6.55M0.0%+17.7%0.274%
2/13/2020Nicholas Investment Partners LP537,475$22.57M2.3%+402.1%0.944%
2/12/2020Credit Suisse AG37,892$1.59M0.0%+8.2%0.067%
2/12/2020Advisor Group Inc.4,378$0.19M0.0%-14.4%0.008%
2/12/2020Raymond James & Associates101,806$4.28M0.0%-6.3%0.179%
2/12/2020Franklin Resources Inc.10,001$0.42M0.0%-24.0%0.018%
2/12/2020ProShare Advisors LLC7,288$0.31M0.0%+17.0%0.013%
2/12/2020Raymond James Financial Services Advisors Inc.16,768$0.70M0.0%-13.6%0.029%
2/12/2020Driehaus Capital Management LLC16,701$0.70M0.0%-44.7%0.029%
2/12/2020Panagora Asset Management Inc.173,819$7.30M0.0%+41.5%0.305%
2/11/2020Great West Life Assurance Co. Can59,393$2.47M0.0%N/A0.104%
2/11/2020Eaton Vance Management111,139$4.67M0.0%+91.3%0.195%
2/11/2020Schroder Investment Management Group8,112$0.34M0.0%-38.3%0.014%
2/11/2020Prudential Financial Inc.80,284$3.37M0.0%-14.6%0.141%
2/11/2020Envestnet Asset Management Inc.84,567$3.55M0.0%+35.8%0.149%
2/11/2020KBC Group NV49,666$2.09M0.0%-9.4%0.087%
2/11/2020Mutual Advisors LLC13,701$0.58M0.1%-6.3%0.024%
2/10/2020Barclays PLC71,784$3.01M0.0%+15.1%0.126%
2/10/2020Employees Retirement System of Texas155,666$6.54M0.1%+7.6%0.273%
2/10/2020Pacer Advisors Inc.22,563$0.95M0.0%N/A0.040%
2/10/2020Aptus Capital Advisors LLC20,327$0.85M0.1%+19.3%0.036%
2/10/2020Bank of Montreal Can267,546$11.24M0.0%+58.9%0.470%
2/7/2020FMR LLC70,547$2.96M0.0%-46.3%0.124%
2/7/2020Jennison Associates LLC200,741$8.43M0.0%-16.5%0.353%
2/7/2020M&T Bank Corp5,302$0.22M0.0%-14.7%0.009%
2/7/2020Comerica Bank88,996$3.57M0.0%+12.0%0.156%
2/7/2020Los Angeles Capital Management & Equity Research Inc.18,217$0.77M0.0%-60.7%0.032%
2/7/2020Charles Schwab Investment Management Inc.316,029$13.27M0.0%+1.4%0.555%
2/7/2020Oppenheimer Asset Management Inc.7,209$0.30M0.0%+4.8%0.013%
2/7/2020PNC Financial Services Group Inc.11,356,107$476.84M0.5%-39.3%19.944%
2/6/2020Benjamin F. Edwards & Company Inc.721$30K0.0%-49.7%0.001%
2/6/2020Victory Capital Management Inc.17,505$0.74M0.0%-3.4%0.031%
2/6/2020Synovus Financial Corp3,872$0.16M0.0%-23.7%0.007%
2/6/2020Royce & Associates LP1,585$67K0.0%N/A0.003%
2/6/20201492 Capital Management LLC23,196$0.97M0.9%N/A0.041%
2/6/2020State of Tennessee Treasury Department31,927$1.34M0.0%-13.3%0.056%
2/6/2020Pinnacle Financial Partners Inc.983$41K0.0%N/A0.002%
2/6/2020State Street Corp8,777,285$368.56M0.0%+360.1%15.415%
2/6/2020Swiss National Bank92,414$3.88M0.0%+2.0%0.162%
2/5/2020Signaturefd LLC821$34K0.0%+117.8%0.001%
2/5/2020Wallington Asset Management LLC21,880$0.92M0.2%-5.5%0.038%
2/5/2020American International Group Inc.32,178$1.35M0.0%-2.7%0.057%
2/5/2020Rhumbline Advisers151,599$6.37M0.0%+6.8%0.266%
2/5/2020New York State Common Retirement Fund48,486$2.04M0.0%-8.7%0.085%
2/5/2020Montag A & Associates Inc.5,219$0.22M0.0%N/A0.009%
2/5/2020Principal Financial Group Inc.374,904$15.74M0.0%+1.9%0.658%
2/4/2020Victory Capital Management Inc.8,375$0.32M0.0%-53.8%0.015%
2/4/2020US Bancorp DE15,154$0.64M0.0%-35.5%0.027%
2/4/2020Mesirow Financial Investment Management Equity Management187,998$7.89M1.2%-2.3%0.330%
2/4/2020Advisory Services Network LLC976$41K0.0%N/A0.002%
2/4/2020Virtu Financial LLC6,417$0.27M0.0%N/A0.011%
2/4/2020AMG National Trust Bank194,753$8.18M0.5%-8.5%0.342%
2/3/2020Cadence Capital Management LLC33,061$1.39M0.1%-3.4%0.058%
2/3/2020State Board of Administration of Florida Retirement System20,679$0.87M0.0%-9.4%0.036%
2/3/2020First Trust Advisors LP37,935$1.59M0.0%N/A0.067%
2/3/2020Municipal Employees Retirement System of Michigan14,270$0.60M0.0%-6.4%0.025%
1/31/2020Financial Counselors Inc.5,955$0.25M0.0%-10.8%0.010%
1/31/2020Covenant Multifamily Offices LLC86,496$1.84M0.3%N/A0.152%
1/31/2020First Mercantile Trust Co.3,650$0.15M0.0%+16.2%0.006%
1/31/2020Seelaus Asset Management LLC8,725$0.37M0.3%N/A0.015%
1/31/2020State of New Jersey Common Pension Fund D60,204$2.53M0.0%-12.2%0.106%
1/30/2020Creative Planning7,191$0.30M0.0%-11.0%0.013%
1/30/2020CFM Wealth Partners LLC692$29K0.0%N/A0.001%
1/29/2020Russell Investments Group Ltd.390,140$16.38M0.0%+14.9%0.685%
1/29/2020Arcadia Investment Management Corp MI3,051$0.13M0.0%-53.6%0.005%
1/29/2020Clear Harbor Asset Management LLC6,459$0.27M0.0%-56.4%0.011%
1/28/2020SG Americas Securities LLC8,208$0.35M0.0%+109.5%0.014%
1/28/2020Dearborn Partners LLC12,845$0.54M0.0%+27.3%0.023%
1/28/2020M&G Investment Management Ltd.182,223$7.65M0.1%N/A0.320%
1/27/2020Duncker Streett & Co. Inc.1,479$62K0.0%N/A0.003%
1/27/2020California Public Employees Retirement System160,122$6.72M0.0%+95.3%0.281%
1/27/2020Arizona State Retirement System31,138$1.31M0.0%-43.2%0.055%
(Data available from 1/1/2016 forward)
This page was last updated on 2/21/2020 by MarketBeat.com Staff

Featured Article: Treasury Bonds

Enter your email address below to receive a concise daily summary of analysts' upgrades, downgrades and new coverage with MarketBeat.com's FREE daily email newsletter.

Yahoo Gemini Pixel